Terminal Aerodrome Forecast
Issued by NWS

Home | Current Version | Previous Version | Text Only | Print | Product List | Glossary On
Versions: 1 2 3 4 5 6 7 8 9 10 11 12 13
000
FTUS45 KFGZ 211100
TAFGCN
TAF
KGCN 211140Z 2112/2212 VRB03KT P6SM SCT110 OVC200
     FM211530 VRB05KT P6SM SCT080 BKN110
      TEMPO 2117/2120 SCT050 BKN060
     FM220100 VRB03KT P6SM FEW050=

USA.gov is the U.S. government's official web portal to all federal, state and local government web resources and services.